createdAt,value
2018-05-15T00:02:04.913Z,23.85
2018-05-15T00:04:32.345Z,22.43
2018-05-15T00:07:00.557Z,21.58
2018-05-15T00:09:28.012Z,32.07
2018-05-15T00:11:55.468Z,33.17
2018-05-15T00:14:22.919Z,29.93
2018-05-15T00:16:51.120Z,27.47
2018-05-15T00:19:19.338Z,29.70
2018-05-15T00:21:46.798Z,28.87
2018-05-15T00:24:14.243Z,28.57
2018-05-15T00:26:41.681Z,28.33
2018-05-15T00:29:09.888Z,25.90
2018-05-15T00:31:38.110Z,23.50
2018-05-15T00:38:59.576Z,29.20
2018-05-15T00:41:27.018Z,24.40
2018-05-15T00:43:54.453Z,25.07
2018-05-15T00:46:22.496Z,23.43
2018-05-15T00:48:49.929Z,23.60
2018-05-15T00:51:17.378Z,24.57
2018-05-15T00:53:44.840Z,21.60
2018-05-15T00:56:13.050Z,20.03
2018-05-15T00:58:41.348Z,21.43
2018-05-15T01:01:08.794Z,20.67
2018-05-15T01:03:36.255Z,18.97
2018-05-15T01:06:03.669Z,19.17
2018-05-15T01:08:31.880Z,20.20
2018-05-15T01:11:00.100Z,17.80
2018-05-15T01:13:27.538Z,17.50
2018-05-15T01:15:55.015Z,17.13
2018-05-15T01:18:22.456Z,17.30
2018-05-15T01:20:49.918Z,19.83
2018-05-15T01:23:17.363Z,19.17
2018-05-15T01:25:44.802Z,17.67
2018-05-15T01:28:13.017Z,16.97
2018-05-15T01:30:41.218Z,18.87
2018-05-15T01:33:08.686Z,16.07
2018-05-15T01:35:36.894Z,18.13
2018-05-15T01:38:05.115Z,16.80
2018-05-15T01:40:32.564Z,18.10
2018-05-15T01:43:00.006Z,16.63
2018-05-15T01:45:27.445Z,18.98
2018-05-15T01:47:54.926Z,20.23
2018-05-15T01:50:23.143Z,20.92
2018-05-15T01:52:50.581Z,20.83
2018-05-15T01:55:18.842Z,21.30
2018-05-15T01:57:46.294Z,20.50
2018-05-15T02:00:14.526Z,20.97
2018-05-15T02:02:41.965Z,19.50
2018-05-15T02:05:10.173Z,19.37
2018-05-15T02:07:37.629Z,20.47
2018-05-15T02:10:05.065Z,20.00
2018-05-15T02:12:32.534Z,20.70
2018-05-15T02:14:59.974Z,19.40
2018-05-15T02:17:27.432Z,17.23
2018-05-15T02:19:54.893Z,16.13
2018-05-15T02:22:22.337Z,17.60
2018-05-15T02:24:49.777Z,16.00
2018-05-15T02:27:17.243Z,17.10
2018-05-15T02:29:44.686Z,17.70
2018-05-15T02:32:12.911Z,15.73
2018-05-15T02:34:40.519Z,17.60
2018-05-15T02:37:07.958Z,16.77
2018-05-15T02:39:36.179Z,15.60
2018-05-15T02:42:03.628Z,16.87
2018-05-15T02:44:31.063Z,15.33
2018-05-15T02:46:58.514Z,16.63
2018-05-15T02:49:25.960Z,16.37
2018-05-15T02:51:53.397Z,16.00
2018-05-15T02:54:20.830Z,17.70
2018-05-15T02:56:48.292Z,18.00
2018-05-15T02:59:15.731Z,17.40
2018-05-15T03:01:43.182Z,17.20
2018-05-15T03:04:10.610Z,16.90
2018-05-15T03:06:38.083Z,19.17
2018-05-15T03:09:05.524Z,21.27
2018-05-15T03:11:32.984Z,18.00
2018-05-15T03:14:00.415Z,16.10
2018-05-15T03:16:28.625Z,17.23
2018-05-15T03:18:56.078Z,17.90
2018-05-15T03:21:24.282Z,18.73
2018-05-15T03:23:52.489Z,17.37
2018-05-15T03:26:20.726Z,19.17
2018-05-15T03:28:48.193Z,19.23
2018-05-15T03:31:16.010Z,21.50
2018-05-15T03:33:43.450Z,20.00
2018-05-15T03:36:10.886Z,17.60
2018-05-15T03:38:38.334Z,17.33
2018-05-15T03:41:05.782Z,19.40
2018-05-15T03:43:34.000Z,19.43
2018-05-15T03:46:01.447Z,19.00
2018-05-15T03:48:28.905Z,19.60
2018-05-15T03:50:56.337Z,19.30
2018-05-15T03:53:25.467Z,21.77
2018-05-15T03:55:53.683Z,21.00
2018-05-15T03:58:21.125Z,21.20
2018-05-15T04:01:00.586Z,18.30
2018-05-15T04:03:39.963Z,19.53
2018-05-15T04:06:19.418Z,20.33
2018-05-15T04:08:46.964Z,18.33
2018-05-15T04:11:14.318Z,18.90
2018-05-15T04:13:42.525Z,18.57
2018-05-15T04:16:09.966Z,20.37
2018-05-15T04:18:37.420Z,18.87
2018-05-15T04:21:04.866Z,19.10
2018-05-15T04:23:33.083Z,20.27
2018-05-15T04:26:00.526Z,19.57
2018-05-15T04:28:27.981Z,19.67
2018-05-15T04:30:55.426Z,20.43
2018-05-15T04:33:22.879Z,18.10
2018-05-15T04:35:50.317Z,17.70
2018-05-15T04:38:17.798Z,22.15
2018-05-15T04:40:45.242Z,21.70
2018-05-15T04:43:13.458Z,17.90
2018-05-15T04:45:40.893Z,19.60
2018-05-15T04:48:08.339Z,18.17
2018-05-15T04:50:36.594Z,18.77
2018-05-15T04:53:04.041Z,19.70
2018-05-15T04:55:31.487Z,18.10
2018-05-15T04:57:58.929Z,16.17
2018-05-15T05:00:26.758Z,17.53
2018-05-15T05:02:54.194Z,18.37
2018-05-15T05:05:21.633Z,18.53
2018-05-15T05:07:49.073Z,18.27
2018-05-15T05:10:16.875Z,17.07
2018-05-15T05:12:44.999Z,17.50
2018-05-15T05:15:12.441Z,18.73
2018-05-15T05:17:40.654Z,19.20
2018-05-15T05:20:08.884Z,17.60
2018-05-15T05:22:36.314Z,17.87
2018-05-15T05:25:03.761Z,19.17
2018-05-15T05:27:31.193Z,16.90
2018-05-15T05:29:59.712Z,17.70
2018-05-15T05:32:27.910Z,18.53
2018-05-15T05:34:56.126Z,19.77
2018-05-15T05:37:23.565Z,18.80
2018-05-15T05:39:51.009Z,18.47
2018-05-15T05:42:18.451Z,16.97
2018-05-15T05:44:46.686Z,17.67
2018-05-15T05:47:14.130Z,16.43
2018-05-15T05:49:42.347Z,16.60
2018-05-15T05:52:09.777Z,15.60
2018-05-15T05:54:37.226Z,17.77
2018-05-15T05:57:04.666Z,15.83
2018-05-15T05:59:32.885Z,15.83
2018-05-15T06:02:00.349Z,15.17
2018-05-15T06:04:28.603Z,15.53
2018-05-15T06:06:56.055Z,15.10
2018-05-15T06:09:23.506Z,14.20
2018-05-15T06:11:50.941Z,14.20
2018-05-15T06:14:18.465Z,13.90
2018-05-15T06:16:45.837Z,14.27
2018-05-15T06:19:13.282Z,13.65
2018-05-15T06:21:40.717Z,13.40
2018-05-15T06:24:09.119Z,12.53
2018-05-15T06:26:36.550Z,12.23
2018-05-15T06:29:04.006Z,13.02
2018-05-15T06:31:31.448Z,12.90
2018-05-15T06:33:58.893Z,12.90
2018-05-15T06:36:26.333Z,12.48
2018-05-15T06:38:54.551Z,12.37
2018-05-15T06:41:21.995Z,13.43
2018-05-15T06:43:49.441Z,12.55
2018-05-15T06:46:16.882Z,13.80
2018-05-15T06:48:45.097Z,12.80
2018-05-15T06:51:12.539Z,13.20
2018-05-15T06:53:39.994Z,13.80
2018-05-15T06:56:07.427Z,11.97
2018-05-15T06:58:35.638Z,11.37
2018-05-15T07:01:03.074Z,10.37
2018-05-15T07:03:30.525Z,12.57
2018-05-15T07:05:57.966Z,11.03
2018-05-15T07:08:26.175Z,10.60
2018-05-15T07:10:54.386Z,11.20
2018-05-15T07:13:21.821Z,9.90
2018-05-15T07:15:49.275Z,10.47
2018-05-15T07:18:16.722Z,11.03
2018-05-15T07:20:44.925Z,10.37
2018-05-15T07:23:13.139Z,9.17
2018-05-15T07:25:40.582Z,9.87
2018-05-15T07:28:08.042Z,9.67
2018-05-15T07:30:35.487Z,10.60
2018-05-15T07:33:02.999Z,11.83
2018-05-15T07:35:30.373Z,10.40
2018-05-15T07:37:57.827Z,10.82
2018-05-15T07:40:25.281Z,10.60
2018-05-15T07:42:52.715Z,10.95
2018-05-15T07:45:20.171Z,9.37
2018-05-15T07:47:47.599Z,9.70
2018-05-15T07:50:15.058Z,9.88
2018-05-15T07:52:42.492Z,9.93
2018-05-15T07:55:10.697Z,10.23
2018-05-15T07:57:39.215Z,10.57
2018-05-15T08:00:06.668Z,10.87
2018-05-15T08:02:34.111Z,9.70
2018-05-15T08:05:01.566Z,9.10
2018-05-15T08:07:29.005Z,10.97
2018-05-15T08:09:56.460Z,9.50
2018-05-15T08:12:23.923Z,9.15
2018-05-15T08:14:51.376Z,9.88
2018-05-15T08:17:19.577Z,8.75
2018-05-15T08:19:47.020Z,9.30
2018-05-15T08:22:14.472Z,9.70
2018-05-15T08:24:41.935Z,10.20
2018-05-15T08:27:09.369Z,9.90
2018-05-15T08:29:36.827Z,9.63
2018-05-15T08:32:04.275Z,9.90
2018-05-15T08:34:31.717Z,9.27
2018-05-15T08:36:59.153Z,9.75
2018-05-15T08:39:26.602Z,9.40
2018-05-15T08:41:54.052Z,10.17
2018-05-15T08:44:21.489Z,10.00
2018-05-15T08:46:48.943Z,9.55
2018-05-15T08:49:16.862Z,9.27
2018-05-15T08:51:44.307Z,10.83
2018-05-15T08:59:06.492Z,10.17
2018-05-15T09:01:33.938Z,11.40
2018-05-15T09:04:02.147Z,10.80
2018-05-15T09:06:30.362Z,10.68
2018-05-15T09:08:57.824Z,10.80
2018-05-15T09:11:26.045Z,11.18
2018-05-15T09:13:53.487Z,10.50
2018-05-15T09:16:20.947Z,11.65
2018-05-15T09:18:48.381Z,12.40
2018-05-15T09:21:15.852Z,11.30
2018-05-15T09:23:43.294Z,10.97
2018-05-15T09:26:10.741Z,10.23
2018-05-15T09:28:38.178Z,10.17
2018-05-15T09:31:06.418Z,10.90
2018-05-15T09:33:33.853Z,10.50
2018-05-15T09:36:01.315Z,11.43
2018-05-15T09:38:29.629Z,11.93
2018-05-15T09:40:57.081Z,11.07
2018-05-15T09:46:38.581Z,10.37
2018-05-15T09:49:06.043Z,11.60
2018-05-15T09:51:33.483Z,9.77
2018-05-15T09:56:27.922Z,12.30
2018-05-15T09:58:56.154Z,12.00
2018-05-15T10:01:23.599Z,11.00
2018-05-15T10:03:51.812Z,10.88
2018-05-15T10:06:19.264Z,11.33
2018-05-15T10:08:46.693Z,11.50
2018-05-15T10:11:14.143Z,10.40
2018-05-15T10:13:42.341Z,9.40
2018-05-15T10:16:10.562Z,8.10
2018-05-15T10:18:38.009Z,9.40
2018-05-15T10:21:06.400Z,9.43
2018-05-15T10:23:33.838Z,9.90
2018-05-15T10:26:01.281Z,9.50
2018-05-15T10:28:29.491Z,9.50
2018-05-15T10:30:57.708Z,9.53
2018-05-15T10:33:25.141Z,8.67
2018-05-15T10:35:52.602Z,8.40
2018-05-15T10:38:20.049Z,7.90
2018-05-15T10:40:48.246Z,7.70
2018-05-15T10:43:16.595Z,6.97
2018-05-15T10:45:44.050Z,8.07
2018-05-15T10:48:11.487Z,6.77
2018-05-15T10:50:40.520Z,7.67
2018-05-15T10:53:08.755Z,6.80
2018-05-15T10:55:36.197Z,6.23
2018-05-15T10:58:04.384Z,5.83
2018-05-15T11:00:32.591Z,7.03
2018-05-15T11:03:00.794Z,6.00
2018-05-15T11:05:29.008Z,6.77
2018-05-15T11:07:56.438Z,6.53
2018-05-15T11:30:13.454Z,4.90
2018-05-15T11:32:40.901Z,4.70
2018-05-15T11:35:08.330Z,5.40
2018-05-15T11:37:35.761Z,4.53
2018-05-15T11:40:03.209Z,4.47
2018-05-15T11:44:57.654Z,5.80
2018-05-15T11:47:25.198Z,4.20
2018-05-15T11:49:53.942Z,4.10
2018-05-15T11:52:22.170Z,5.90
2018-05-15T11:54:48.950Z,5.55
2018-05-15T11:57:16.385Z,5.97
2018-05-15T11:59:44.411Z,6.90
2018-05-15T12:02:11.817Z,6.32
2018-05-15T12:04:39.255Z,5.87
2018-05-15T12:07:06.691Z,4.77
2018-05-15T12:09:34.130Z,4.40
2018-05-15T12:12:01.607Z,5.37
2018-05-15T12:14:29.043Z,5.00
2018-05-15T12:16:56.494Z,4.00
2018-05-15T12:19:23.948Z,4.77
2018-05-15T12:21:51.393Z,4.50
2018-05-15T12:24:18.818Z,4.20
2018-05-15T12:26:46.274Z,4.60
2018-05-15T12:29:13.723Z,4.53
2018-05-15T12:31:41.929Z,4.00
2018-05-15T12:34:09.358Z,4.60
2018-05-15T12:36:36.809Z,5.23
2018-05-15T12:39:04.251Z,4.80
2018-05-15T12:41:32.529Z,4.68
2018-05-15T12:44:00.654Z,4.78
2018-05-15T12:46:28.866Z,4.20
2018-05-15T12:48:56.309Z,5.30
2018-05-15T12:51:23.748Z,4.83
2018-05-15T12:53:51.205Z,4.40
2018-05-15T13:13:29.930Z,6.10
2018-05-15T13:15:58.141Z,7.80
2018-05-15T13:18:25.636Z,8.73
2018-05-15T13:20:53.019Z,7.75
2018-05-15T13:23:20.470Z,7.95
2018-05-15T13:25:47.909Z,7.57
2018-05-15T13:28:15.350Z,8.10
2018-05-15T13:30:42.793Z,7.30
2018-05-15T13:33:11.011Z,6.93
2018-05-15T13:35:39.213Z,7.70
2018-05-15T13:38:06.658Z,7.70
2018-05-15T13:40:34.093Z,7.90
2018-05-15T13:43:01.543Z,7.00
2018-05-15T13:45:29.761Z,7.40
2018-05-15T13:47:57.222Z,9.50
2018-05-15T13:50:25.468Z,10.00
2018-05-15T13:52:54.538Z,9.83
2018-05-15T13:55:21.984Z,9.67
2018-05-15T13:57:49.435Z,8.37
2018-05-15T14:00:16.865Z,9.90
2018-05-15T14:02:44.318Z,12.23
2018-05-15T14:05:11.784Z,11.83
2018-05-15T14:07:39.230Z,12.33
2018-05-15T14:10:07.442Z,11.70
2018-05-15T14:12:35.707Z,9.27
2018-05-15T14:15:03.081Z,9.10
2018-05-15T14:17:30.547Z,9.47
2018-05-15T14:19:57.987Z,9.63
2018-05-15T14:22:25.447Z,10.60
2018-05-15T14:24:52.885Z,10.10
2018-05-15T14:27:20.330Z,11.10
2018-05-15T14:29:48.540Z,9.50
2018-05-15T14:32:16.743Z,9.70
2018-05-15T14:34:44.183Z,9.77
2018-05-15T14:37:11.621Z,10.30
2018-05-15T14:39:39.067Z,10.00
2018-05-15T14:42:19.155Z,9.73
2018-05-15T14:44:47.358Z,9.00
2018-05-15T14:47:15.565Z,8.47
2018-05-15T14:49:43.028Z,8.37
2018-05-15T14:52:10.473Z,8.03
2018-05-15T14:54:37.906Z,9.20
2018-05-15T14:57:05.356Z,9.23
2018-05-15T14:59:32.786Z,9.67
2018-05-15T15:02:00.238Z,9.50
2018-05-15T15:04:28.443Z,10.17
2018-05-15T15:06:56.655Z,8.97
2018-05-15T15:09:24.090Z,9.10
2018-05-15T15:11:51.533Z,8.90
2018-05-15T15:14:18.965Z,11.50
2018-05-15T15:16:47.177Z,9.63
2018-05-15T15:19:15.381Z,8.60
2018-05-15T15:21:43.591Z,8.37
2018-05-15T15:24:11.030Z,7.73
2018-05-15T15:26:38.473Z,6.97
2018-05-15T15:29:05.911Z,7.63
2018-05-15T15:31:34.111Z,7.90
2018-05-15T15:34:02.305Z,7.50
2018-05-15T15:36:30.506Z,8.40
2018-05-15T15:38:58.705Z,7.37
2018-05-15T15:41:26.904Z,6.30
2018-05-15T15:43:55.113Z,7.57
2018-05-15T15:46:23.301Z,6.60
2018-05-15T15:48:51.509Z,6.50
2018-05-15T15:51:19.711Z,6.83
2018-05-15T15:53:47.922Z,6.47
2018-05-15T15:56:16.118Z,7.50
2018-05-15T15:58:43.567Z,7.30
2018-05-15T16:01:10.993Z,4.43
2018-05-15T16:03:38.429Z,4.97
2018-05-15T16:06:05.869Z,5.60
2018-05-15T16:08:33.302Z,6.70
2018-05-15T16:11:01.506Z,4.80
2018-05-15T16:13:28.942Z,4.63
2018-05-15T16:15:56.373Z,4.90
2018-05-15T16:18:24.573Z,4.20
2018-05-15T16:20:52.774Z,5.00
2018-05-15T16:23:20.982Z,5.40
2018-05-15T16:25:49.173Z,5.40
2018-05-15T16:28:17.382Z,5.80
2018-05-15T16:30:45.580Z,5.80
2018-05-15T16:33:13.795Z,6.90
2018-05-15T16:35:41.239Z,12.23
2018-05-15T16:38:08.711Z,8.40
2018-05-15T16:40:36.151Z,8.47
2018-05-15T16:43:03.585Z,7.90
2018-05-15T16:45:31.013Z,6.97
2018-05-15T16:47:58.454Z,5.60
2018-05-15T16:50:26.669Z,5.67
2018-05-15T16:52:54.879Z,5.80
2018-05-15T16:55:22.319Z,6.10
2018-05-15T16:57:49.763Z,7.30
2018-05-15T17:00:17.190Z,7.60
2018-05-15T17:02:44.630Z,5.87
2018-05-15T17:05:12.058Z,6.13
2018-05-15T17:07:40.265Z,5.90
2018-05-15T17:10:08.477Z,5.37
2018-05-15T17:12:36.677Z,8.50
2018-05-15T17:15:04.874Z,6.20
2018-05-15T17:17:33.079Z,5.60
2018-05-15T17:20:01.280Z,6.57
2018-05-15T17:22:29.484Z,7.03
2018-05-15T17:24:57.690Z,6.20
2018-05-15T17:27:25.131Z,6.50
2018-05-15T17:29:52.570Z,6.17
2018-05-15T17:32:20.003Z,6.07
2018-05-15T17:34:47.438Z,6.63
2018-05-15T17:37:14.875Z,7.80
2018-05-15T17:39:42.309Z,7.10
2018-05-15T17:42:09.738Z,7.07
2018-05-15T17:44:37.951Z,9.90
2018-05-15T17:47:06.150Z,8.60
2018-05-15T17:49:34.355Z,8.30
2018-05-15T17:52:02.554Z,8.77
2018-05-15T17:54:29.997Z,8.40
2018-05-15T17:56:57.443Z,8.53
2018-05-15T17:59:24.913Z,9.17
2018-05-15T18:01:53.281Z,9.37
2018-05-15T18:04:20.725Z,10.13
2018-05-15T18:06:48.936Z,12.27
2018-05-15T18:09:16.378Z,11.27
2018-05-15T18:11:43.821Z,11.00
2018-05-15T18:14:11.257Z,10.90
2018-05-15T18:16:38.721Z,11.30
2018-05-15T18:19:06.181Z,11.47
2018-05-15T18:21:34.382Z,11.60
2018-05-15T18:24:02.599Z,14.60
2018-05-15T18:26:30.034Z,17.17
2018-05-15T18:28:57.486Z,11.90
2018-05-15T18:31:24.917Z,12.13
2018-05-15T18:33:53.126Z,11.67
2018-05-15T18:36:20.577Z,9.67
2018-05-15T18:38:48.017Z,7.37
2018-05-15T18:41:15.459Z,13.37
2018-05-15T18:43:43.667Z,7.00
2018-05-15T18:46:11.861Z,9.90
2018-05-15T18:48:40.066Z,6.97
2018-05-15T18:51:07.505Z,7.63
2018-05-15T18:53:34.942Z,7.40
2018-05-15T18:56:02.387Z,8.13
2018-05-15T18:58:29.825Z,7.10
2018-05-15T19:00:57.249Z,7.20
2018-05-15T19:03:24.694Z,7.80
2018-05-15T19:05:52.121Z,7.40
2018-05-15T20:30:18.207Z,4.90
2018-05-15T20:32:45.633Z,4.90
2018-05-15T20:35:13.065Z,5.30
2018-05-15T20:37:40.501Z,5.23
2018-05-15T20:40:07.947Z,5.57
2018-05-15T20:42:35.391Z,5.23
2018-05-15T20:45:02.833Z,5.50
2018-05-15T20:47:31.038Z,4.63
2018-05-15T20:49:59.237Z,5.30
2018-05-15T20:52:27.440Z,4.57
2018-05-15T20:54:55.646Z,4.77
2018-05-15T20:57:23.847Z,4.30
2018-05-15T20:59:52.063Z,4.93
2018-05-15T21:02:19.490Z,5.53
2018-05-15T21:04:46.926Z,5.57
2018-05-15T21:07:14.362Z,6.40
2018-05-15T21:09:41.802Z,5.40
2018-05-15T21:12:09.238Z,5.00
2018-05-15T21:14:37.438Z,5.00
2018-05-15T21:17:05.641Z,6.00
2018-05-15T21:19:33.857Z,6.40
2018-05-15T21:22:02.044Z,6.53
2018-05-15T21:24:30.253Z,10.27
2018-05-15T21:26:58.453Z,9.47
2018-05-15T21:29:26.659Z,8.97
2018-05-15T21:31:54.094Z,8.30
2018-05-15T21:34:21.546Z,8.60
2018-05-15T21:36:49.006Z,10.47
2018-05-15T21:39:17.210Z,12.00
2018-05-15T21:41:44.649Z,13.07
2018-05-15T21:44:12.094Z,11.83
2018-05-15T21:46:39.530Z,14.83
2018-05-15T21:49:07.733Z,15.23
2018-05-15T21:51:35.938Z,14.80
2018-05-15T21:54:04.149Z,16.00
2018-05-15T21:56:31.593Z,15.13
2018-05-15T21:58:59.029Z,15.47
2018-05-15T22:01:26.473Z,16.80
2018-05-15T22:03:54.023Z,17.00
2018-05-15T22:06:21.355Z,17.73
2018-05-15T22:08:50.072Z,18.07
2018-05-15T22:11:17.785Z,17.87
2018-05-15T22:13:57.081Z,19.43
2018-05-15T22:16:36.329Z,19.80
2018-05-15T22:19:15.714Z,19.20
2018-05-15T22:21:55.087Z,20.87
2018-05-15T22:24:26.469Z,21.90
2018-05-15T22:26:53.931Z,19.87
2018-05-15T22:29:21.366Z,21.43
2018-05-15T22:31:48.809Z,21.17
2018-05-15T22:34:16.249Z,20.83
2018-05-15T22:36:43.688Z,19.57
2018-05-15T22:39:11.130Z,19.70
2018-05-15T22:41:38.635Z,22.50
2018-05-15T22:44:06.040Z,19.80
2018-05-15T22:46:33.486Z,19.57
2018-05-15T22:49:00.918Z,21.40
2018-05-15T22:51:29.129Z,20.47
2018-05-15T22:53:56.575Z,21.97
2018-05-15T22:56:24.035Z,21.37
2018-05-15T22:58:51.452Z,21.47
2018-05-15T23:01:19.671Z,22.53
2018-05-15T23:03:47.105Z,21.63
2018-05-15T23:06:14.553Z,20.63
2018-05-15T23:08:41.985Z,20.27
2018-05-15T23:11:10.203Z,20.13
2018-05-15T23:13:38.413Z,20.00
2018-05-15T23:16:06.608Z,20.10
2018-05-15T23:18:34.055Z,20.27
2018-05-15T23:21:01.498Z,20.50
2018-05-15T23:23:28.941Z,19.83
2018-05-15T23:25:57.146Z,19.40
2018-05-15T23:28:25.346Z,20.50
2018-05-15T23:30:53.559Z,20.67
2018-05-15T23:33:20.993Z,18.97
2018-05-15T23:35:48.444Z,19.20
2018-05-15T23:38:15.876Z,21.20
2018-05-15T23:40:43.317Z,21.37
2018-05-15T23:43:10.753Z,21.07
2018-05-15T23:45:38.967Z,20.30
2018-05-15T23:48:06.405Z,19.43
2018-05-15T23:50:33.866Z,20.60
2018-05-15T23:53:01.306Z,22.57
2018-05-15T23:55:29.511Z,22.13
2018-05-15T23:57:56.953Z,22.03
